createdAt,value
2018-10-09T00:01:44.491Z,69.73
2018-10-09T00:04:12.678Z,71.37
2018-10-09T00:06:40.867Z,63.00
2018-10-09T00:09:10.539Z,66.93
2018-10-09T00:11:38.757Z,60.43
2018-10-09T00:14:07.012Z,64.20
2018-10-09T00:16:35.492Z,68.70
2018-10-09T00:19:03.939Z,59.90
2018-10-09T00:21:32.187Z,60.50
2018-10-09T00:24:00.366Z,60.73
2018-10-09T00:26:28.566Z,61.37
2018-10-09T00:28:56.742Z,60.20
2018-10-09T00:31:24.934Z,63.03
2018-10-09T00:33:53.107Z,57.50
2018-10-09T00:36:21.303Z,64.47
2018-10-09T00:38:49.482Z,58.77
2018-10-09T00:41:17.687Z,66.93
2018-10-09T00:43:45.870Z,54.90
2018-10-09T00:46:14.062Z,58.57
2018-10-09T00:48:42.411Z,60.40
2018-10-09T00:51:10.606Z,59.93
2018-10-09T00:53:39.062Z,60.90
2018-10-09T00:56:07.754Z,58.17
2018-10-09T00:58:35.939Z,59.27
2018-10-09T01:01:04.118Z,63.07
2018-10-09T01:03:32.314Z,57.77
2018-10-09T01:06:00.514Z,59.30
2018-10-09T01:08:28.705Z,61.63
2018-10-09T01:10:56.936Z,63.60
2018-10-09T01:13:25.176Z,56.50
2018-10-09T01:15:53.404Z,72.17
2018-10-09T01:18:21.599Z,70.67
2018-10-09T01:20:49.787Z,73.23
2018-10-09T01:23:17.978Z,75.23
2018-10-09T01:25:46.180Z,78.13
2018-10-09T01:28:14.374Z,81.93
2018-10-09T01:30:42.598Z,73.67
2018-10-09T01:33:10.775Z,88.53
2018-10-09T01:35:38.967Z,80.63
2018-10-09T01:38:07.155Z,80.80
2018-10-09T01:40:35.339Z,73.27
2018-10-09T01:43:03.511Z,77.10
2018-10-09T01:45:31.699Z,82.00
2018-10-09T01:47:59.853Z,72.13
2018-10-09T01:50:28.023Z,73.00
2018-10-09T01:52:56.239Z,66.30
2018-10-09T01:55:24.373Z,69.27
2018-10-09T01:57:52.538Z,64.40
2018-10-09T02:00:20.715Z,63.60
2018-10-09T02:02:48.940Z,61.67
2018-10-09T02:05:17.157Z,71.93
2018-10-09T02:07:45.371Z,64.27
2018-10-09T02:10:13.554Z,65.93
2018-10-09T02:12:41.730Z,67.07
2018-10-09T02:15:09.898Z,68.47
2018-10-09T02:17:38.074Z,68.57
2018-10-09T02:20:06.242Z,65.10
2018-10-09T02:22:34.431Z,70.23
2018-10-09T02:25:02.598Z,64.13
2018-10-09T02:27:30.770Z,63.00
2018-10-09T02:29:58.943Z,63.20
2018-10-09T02:32:27.123Z,60.23
2018-10-09T02:34:55.285Z,60.80
2018-10-09T02:37:23.467Z,67.03
2018-10-09T02:39:51.645Z,62.00
2018-10-09T02:42:19.842Z,66.03
2018-10-09T02:44:48.252Z,66.27
2018-10-09T02:47:16.438Z,63.53
2018-10-09T02:49:44.617Z,72.43
2018-10-09T02:52:12.856Z,74.73
2018-10-09T02:54:41.059Z,66.67
2018-10-09T02:57:09.296Z,69.47
2018-10-09T02:59:37.496Z,67.90
2018-10-09T03:02:05.802Z,61.17
2018-10-09T03:04:33.979Z,71.00
2018-10-09T03:07:02.166Z,70.67
2018-10-09T03:09:30.347Z,68.63
2018-10-09T03:11:58.543Z,66.70
2018-10-09T03:14:26.727Z,66.80
2018-10-09T03:16:54.919Z,69.67
2018-10-09T03:19:23.102Z,56.10
2018-10-09T03:21:51.300Z,73.10
2018-10-09T03:24:19.483Z,77.83
2018-10-09T03:26:47.674Z,59.60
2018-10-09T03:29:15.875Z,71.37
2018-10-09T03:31:44.056Z,71.37
2018-10-09T03:34:12.243Z,69.57
2018-10-09T03:36:40.423Z,73.27
2018-10-09T03:39:09.210Z,78.23
2018-10-09T03:41:37.411Z,75.40
2018-10-09T03:44:05.682Z,72.97
2018-10-09T03:46:33.910Z,74.77
2018-10-09T03:49:02.155Z,76.47
2018-10-09T03:51:30.360Z,80.10
2018-10-09T03:53:58.556Z,70.13
2018-10-09T03:56:27.022Z,72.40
2018-10-09T03:58:55.247Z,65.70
2018-10-09T04:01:23.427Z,66.80
2018-10-09T04:03:51.603Z,66.00
2018-10-09T04:06:19.770Z,58.93
2018-10-09T04:08:47.943Z,50.37
2018-10-09T04:11:16.107Z,60.77
2018-10-09T04:13:44.296Z,53.27
2018-10-09T04:16:12.814Z,59.60
2018-10-09T04:18:41.507Z,61.17
2018-10-09T04:21:09.727Z,57.17
2018-10-09T04:23:38.467Z,52.07
2018-10-09T04:26:07.143Z,54.70
2018-10-09T04:28:35.330Z,44.77
2018-10-09T04:31:03.592Z,51.73
2018-10-09T04:33:31.932Z,53.70
2018-10-09T04:36:00.137Z,45.60
2018-10-09T04:38:28.376Z,52.57
2018-10-09T04:40:56.607Z,52.63
2018-10-09T04:43:24.793Z,52.93
2018-10-09T04:45:53.199Z,51.83
2018-10-09T04:48:21.862Z,57.27
2018-10-09T04:50:50.355Z,55.17
2018-10-09T04:53:18.538Z,50.17
2018-10-09T04:55:46.714Z,52.77
2018-10-09T04:58:14.934Z,49.50
2018-10-09T05:00:43.138Z,50.90
2018-10-09T05:03:11.283Z,49.47
2018-10-09T05:05:39.458Z,51.53
2018-10-09T05:08:07.818Z,50.87
2018-10-09T05:10:36.003Z,52.80
2018-10-09T05:13:04.174Z,54.07
2018-10-09T05:15:32.346Z,49.77
2018-10-09T05:18:00.531Z,49.50
2018-10-09T05:20:28.719Z,47.77
2018-10-09T05:22:56.883Z,49.23
2018-10-09T05:25:25.066Z,52.67
2018-10-09T05:27:53.230Z,52.30
2018-10-09T05:30:21.407Z,44.40
2018-10-09T05:32:49.575Z,53.70
2018-10-09T05:35:17.756Z,47.90
2018-10-09T05:37:45.989Z,50.57
2018-10-09T05:40:14.099Z,49.07
2018-10-09T05:42:42.275Z,51.07
2018-10-09T05:45:10.448Z,48.43
2018-10-09T05:47:38.798Z,51.87
2018-10-09T05:50:08.007Z,44.73
2018-10-09T05:52:36.549Z,49.17
2018-10-09T05:55:04.717Z,49.07
2018-10-09T05:57:32.932Z,50.87
2018-10-09T06:00:01.136Z,48.83
2018-10-09T06:02:29.319Z,49.57
2018-10-09T06:04:57.499Z,49.30
2018-10-09T06:07:25.667Z,50.53
2018-10-09T06:09:53.846Z,38.80
2018-10-09T06:12:22.019Z,47.13
2018-10-09T06:14:50.195Z,41.80
2018-10-09T06:17:18.366Z,50.67
2018-10-09T06:19:46.570Z,48.87
2018-10-09T06:22:14.811Z,42.60
2018-10-09T06:24:43.260Z,51.47
2018-10-09T06:27:11.443Z,51.90
2018-10-09T06:29:39.620Z,42.50
2018-10-09T06:32:07.799Z,50.67
2018-10-09T06:34:35.984Z,43.00
2018-10-09T06:37:04.183Z,52.33
2018-10-09T06:39:32.330Z,43.10
2018-10-09T06:42:00.516Z,56.93
2018-10-09T06:44:28.688Z,45.03
2018-10-09T06:46:56.872Z,51.90
2018-10-09T06:49:25.088Z,54.63
2018-10-09T06:51:53.263Z,47.17
2018-10-09T06:54:21.463Z,48.53
2018-10-09T06:56:49.741Z,44.30
2018-10-09T06:59:17.783Z,49.70
2018-10-09T07:01:45.991Z,47.60
2018-10-09T07:04:14.220Z,47.77
2018-10-09T07:06:42.496Z,42.33
2018-10-09T07:09:11.803Z,46.67
2018-10-09T07:11:40.064Z,47.37
2018-10-09T07:14:08.247Z,38.97
2018-10-09T07:16:36.476Z,48.53
2018-10-09T07:19:05.011Z,46.03
2018-10-09T07:21:33.286Z,42.40
2018-10-09T07:24:01.531Z,36.63
2018-10-09T07:26:29.698Z,45.80
2018-10-09T07:28:58.182Z,42.60
2018-10-09T07:31:26.583Z,34.70
2018-10-09T07:33:54.888Z,44.77
2018-10-09T07:36:23.062Z,36.80
2018-10-09T07:38:51.271Z,45.07
2018-10-09T07:41:19.479Z,40.00
2018-10-09T07:43:47.757Z,43.37
2018-10-09T07:46:16.010Z,52.53
2018-10-09T07:48:44.195Z,36.53
2018-10-09T07:51:12.385Z,40.63
2018-10-09T07:53:40.567Z,35.97
2018-10-09T07:56:08.770Z,44.03
2018-10-09T07:58:37.049Z,36.30
2018-10-09T08:01:05.151Z,45.27
2018-10-09T08:03:33.339Z,44.17
2018-10-09T08:06:01.543Z,37.43
2018-10-09T08:08:29.766Z,45.37
2018-10-09T08:10:58.034Z,43.13
2018-10-09T08:13:26.241Z,46.27
2018-10-09T08:15:54.474Z,38.13
2018-10-09T08:18:22.671Z,47.33
2018-10-09T08:20:50.875Z,49.23
2018-10-09T08:23:19.067Z,49.93
2018-10-09T08:25:47.250Z,42.77
2018-10-09T08:28:15.450Z,46.57
2018-10-09T08:30:43.643Z,43.70
2018-10-09T08:33:11.859Z,52.30
2018-10-09T08:35:40.043Z,42.73
2018-10-09T08:38:08.235Z,51.00
2018-10-09T08:40:36.418Z,43.70
2018-10-09T08:43:04.603Z,57.70
2018-10-09T08:45:32.820Z,43.00
2018-10-09T08:48:00.994Z,50.77
2018-10-09T08:50:29.158Z,52.33
2018-10-09T08:52:57.347Z,53.37
2018-10-09T08:55:25.518Z,52.67
2018-10-09T08:57:53.698Z,44.07
2018-10-09T09:00:21.867Z,54.47
2018-10-09T09:02:50.088Z,46.70
2018-10-09T09:05:18.263Z,59.07
2018-10-09T09:07:46.440Z,57.30
2018-10-09T09:10:14.607Z,62.63
2018-10-09T09:12:42.788Z,50.43
2018-10-09T09:15:10.993Z,50.40
2018-10-09T09:17:39.147Z,47.40
2018-10-09T09:20:07.424Z,56.10
2018-10-09T09:22:35.622Z,54.47
2018-10-09T09:25:03.826Z,54.47
2018-10-09T09:27:32.121Z,49.70
2018-10-09T09:30:00.273Z,56.93
2018-10-09T09:32:28.494Z,46.23
2018-10-09T09:34:56.708Z,54.20
2018-10-09T09:37:24.895Z,44.17
2018-10-09T09:39:53.082Z,53.23
2018-10-09T09:42:21.286Z,48.47
2018-10-09T09:44:49.457Z,53.63
2018-10-09T09:47:17.618Z,44.63
2018-10-09T09:49:45.799Z,53.77
2018-10-09T09:52:14.030Z,45.90
2018-10-09T09:54:42.547Z,45.87
2018-10-09T09:57:10.795Z,43.00
2018-10-09T09:59:38.975Z,52.07
2018-10-09T10:02:07.515Z,45.63
2018-10-09T10:04:35.690Z,54.23
2018-10-09T10:07:03.871Z,48.07
2018-10-09T10:09:32.039Z,57.13
2018-10-09T10:12:00.219Z,42.77
2018-10-09T10:14:28.395Z,54.50
2018-10-09T10:16:56.595Z,43.70
2018-10-09T10:19:24.774Z,55.87
2018-10-09T10:21:52.955Z,42.13
2018-10-09T10:24:21.139Z,50.97
2018-10-09T10:26:49.317Z,44.37
2018-10-09T10:29:17.510Z,50.10
2018-10-09T10:31:45.663Z,47.83
2018-10-09T10:34:13.843Z,49.83
2018-10-09T10:36:42.102Z,39.67
2018-10-09T10:39:11.442Z,52.70
2018-10-09T10:41:39.871Z,42.27
2018-10-09T10:44:08.133Z,54.97
2018-10-09T10:46:38.529Z,45.43
2018-10-09T10:49:08.901Z,47.33
2018-10-09T10:51:37.462Z,39.87
2018-10-09T10:54:05.663Z,44.57
2018-10-09T10:56:34.119Z,36.70
2018-10-09T10:59:02.316Z,42.30
2018-10-09T11:01:30.574Z,34.17
2018-10-09T11:03:58.711Z,43.83
2018-10-09T11:06:27.337Z,37.30
2018-10-09T11:08:56.252Z,40.87
2018-10-09T11:11:25.275Z,37.07
2018-10-09T11:13:53.535Z,39.43
2018-10-09T11:16:22.602Z,36.93
2018-10-09T11:18:50.784Z,41.53
2018-10-09T11:21:19.780Z,36.03
2018-10-09T11:23:50.405Z,49.90
2018-10-09T11:26:18.611Z,38.17
2018-10-09T11:28:46.815Z,46.00
2018-10-09T11:31:15.012Z,36.47
2018-10-09T11:33:43.195Z,42.80
2018-10-09T11:36:11.936Z,34.70
2018-10-09T11:38:40.218Z,46.03
2018-10-09T11:41:08.429Z,38.63
2018-10-09T11:43:36.621Z,44.20
2018-10-09T11:46:04.810Z,36.73
2018-10-09T11:48:32.995Z,42.57
2018-10-09T11:51:01.186Z,35.10
2018-10-09T11:53:29.415Z,44.10
2018-10-09T11:55:57.614Z,33.60
2018-10-09T11:58:25.816Z,42.10
2018-10-09T12:00:56.039Z,43.03
2018-10-09T12:03:24.231Z,40.63
2018-10-09T12:05:52.466Z,31.57
2018-10-09T12:08:20.612Z,37.20
2018-10-09T12:10:48.831Z,31.47
2018-10-09T12:13:17.022Z,40.77
2018-10-09T12:15:45.239Z,33.07
2018-10-09T12:18:13.431Z,39.87
2018-10-09T12:20:41.676Z,33.53
2018-10-09T12:23:09.999Z,44.87
2018-10-09T12:25:38.199Z,33.63
2018-10-09T12:28:06.391Z,41.53
2018-10-09T12:30:34.599Z,38.03
2018-10-09T12:33:02.891Z,36.17
2018-10-09T12:35:31.003Z,28.87
2018-10-09T12:37:59.196Z,32.00
2018-10-09T12:40:27.367Z,29.80
2018-10-09T12:42:55.593Z,26.97
2018-10-09T12:45:23.784Z,28.40
2018-10-09T12:47:51.954Z,38.83
2018-10-09T12:50:20.159Z,28.03
2018-10-09T12:52:48.358Z,25.93
2018-10-09T12:55:16.523Z,26.87
2018-10-09T12:57:44.712Z,23.37
2018-10-09T13:00:12.888Z,24.33
2018-10-09T13:02:41.059Z,21.80
2018-10-09T13:05:09.232Z,20.87
2018-10-09T13:07:37.399Z,21.07
2018-10-09T13:10:05.588Z,25.47
2018-10-09T13:12:33.781Z,25.67
2018-10-09T13:15:01.958Z,24.47
2018-10-09T13:17:30.156Z,22.93
2018-10-09T13:19:58.324Z,20.73
2018-10-09T13:22:26.891Z,20.90
2018-10-09T13:24:54.687Z,19.77
2018-10-09T13:27:22.948Z,19.93
2018-10-09T13:29:51.128Z,21.90
2018-10-09T13:32:19.315Z,19.80
2018-10-09T13:34:47.486Z,25.33
2018-10-09T13:37:15.670Z,25.57
2018-10-09T13:39:43.831Z,25.90
2018-10-09T13:42:12.011Z,27.63
2018-10-09T13:44:40.175Z,29.27
2018-10-09T13:47:08.409Z,29.47
2018-10-09T13:49:36.535Z,34.07
2018-10-09T13:52:04.748Z,28.53
2018-10-09T13:54:32.953Z,26.63
2018-10-09T13:57:01.168Z,29.07
2018-10-09T13:59:29.389Z,27.77
2018-10-09T14:01:57.678Z,27.90
2018-10-09T14:04:25.947Z,31.13
2018-10-09T14:06:54.197Z,29.23
2018-10-09T14:09:22.383Z,27.67
2018-10-09T14:11:50.614Z,27.40
2018-10-09T14:14:18.821Z,27.30
2018-10-09T14:16:47.309Z,25.70
2018-10-09T14:19:15.479Z,26.10
2018-10-09T14:21:43.786Z,27.07
2018-10-09T14:24:11.962Z,23.90
2018-10-09T14:26:40.294Z,25.40
2018-10-09T14:29:08.451Z,28.40
2018-10-09T14:31:36.623Z,25.73
2018-10-09T14:34:04.791Z,27.63
2018-10-09T14:36:32.968Z,24.37
2018-10-09T14:39:01.143Z,26.20
2018-10-09T14:41:29.324Z,26.77
2018-10-09T14:43:57.532Z,28.77
2018-10-09T14:46:25.665Z,29.93
2018-10-09T14:48:53.831Z,26.70
2018-10-09T14:51:22.000Z,31.03
2018-10-09T14:53:50.171Z,30.63
2018-10-09T14:56:18.330Z,28.13
2018-10-09T14:58:46.498Z,31.23
2018-10-09T15:01:14.666Z,30.93
2018-10-09T15:03:42.839Z,32.13
2018-10-09T15:06:11.015Z,32.47
2018-10-09T15:08:39.187Z,36.00
2018-10-09T15:11:07.425Z,32.53
2018-10-09T15:13:35.609Z,32.53
2018-10-09T15:16:03.819Z,28.47
2018-10-09T15:18:31.995Z,34.90
2018-10-09T15:21:00.983Z,29.97
2018-10-09T15:23:31.667Z,29.47
2018-10-09T15:26:00.074Z,33.53
2018-10-09T15:28:28.505Z,37.27
2018-10-09T15:30:56.784Z,35.40
2018-10-09T15:33:24.954Z,37.73
2018-10-09T15:35:53.119Z,31.83
2018-10-09T15:38:21.289Z,32.53
2018-10-09T15:40:49.447Z,33.10
2018-10-09T15:43:17.630Z,33.53
2018-10-09T15:45:45.815Z,42.17
2018-10-09T15:48:13.987Z,33.87
2018-10-09T15:50:42.158Z,34.70
2018-10-09T15:53:10.334Z,42.33
2018-10-09T15:55:38.511Z,33.00
2018-10-09T15:58:06.723Z,33.90
2018-10-09T16:00:38.090Z,41.47
2018-10-09T16:03:07.090Z,35.40
2018-10-09T16:05:35.287Z,32.83
2018-10-09T16:08:03.459Z,38.33
2018-10-09T16:10:31.687Z,39.80
2018-10-09T16:12:59.929Z,36.33
2018-10-09T16:15:28.160Z,33.40
2018-10-09T16:17:56.351Z,40.27
2018-10-09T16:20:24.539Z,38.80
2018-10-09T16:22:53.434Z,43.40
2018-10-09T16:25:21.686Z,35.83
2018-10-09T16:27:49.868Z,43.10
2018-10-09T16:30:18.080Z,35.40
2018-10-09T16:32:46.633Z,42.33
2018-10-09T16:35:14.731Z,34.20
2018-10-09T16:37:43.419Z,32.73
2018-10-09T16:40:11.919Z,44.03
2018-10-09T16:42:40.388Z,36.97
2018-10-09T16:45:08.816Z,44.60
2018-10-09T16:47:37.587Z,45.87
2018-10-09T16:50:08.459Z,44.60
2018-10-09T16:52:36.656Z,37.73
2018-10-09T16:55:05.243Z,36.87
2018-10-09T16:57:33.415Z,38.10
2018-10-09T17:00:01.671Z,40.67
2018-10-09T17:02:30.275Z,50.60
2018-10-09T17:04:58.609Z,39.10
2018-10-09T17:07:26.899Z,45.27
2018-10-09T17:09:55.126Z,41.07
2018-10-09T17:12:23.306Z,48.77
2018-10-09T17:14:51.898Z,39.87
2018-10-09T17:17:20.175Z,41.23
2018-10-09T17:19:48.438Z,49.27
2018-10-09T17:22:16.557Z,42.27
2018-10-09T17:24:44.739Z,59.47
2018-10-09T17:27:12.911Z,46.03
2018-10-09T17:29:41.131Z,55.83
2018-10-09T17:32:09.319Z,44.63
2018-10-09T17:34:37.785Z,52.63
2018-10-09T17:37:06.187Z,60.50
2018-10-09T17:39:34.363Z,43.07
2018-10-09T17:42:02.587Z,55.10
2018-10-09T17:44:30.723Z,47.90
2018-10-09T17:46:59.437Z,61.07
2018-10-09T17:49:27.519Z,48.27
2018-10-09T17:51:55.716Z,56.03
2018-10-09T17:54:23.929Z,58.97
2018-10-09T17:56:52.160Z,49.33
2018-10-09T17:59:20.353Z,58.77
2018-10-09T18:01:48.537Z,48.97
2018-10-09T18:04:16.722Z,52.57
2018-10-09T18:06:44.907Z,49.03
2018-10-09T18:09:13.211Z,51.90
2018-10-09T18:11:41.730Z,51.03
2018-10-09T18:14:10.682Z,44.50
2018-10-09T18:16:38.850Z,49.97
2018-10-09T18:19:07.598Z,44.20
2018-10-09T18:21:36.127Z,53.83
2018-10-09T18:24:04.811Z,44.60
2018-10-09T18:26:32.978Z,55.67
2018-10-09T18:29:01.139Z,50.70
2018-10-09T18:31:29.335Z,53.63
2018-10-09T18:33:57.510Z,44.93
2018-10-09T18:36:25.683Z,49.70
2018-10-09T18:38:53.859Z,41.63
2018-10-09T18:41:22.647Z,51.37
2018-10-09T18:43:50.815Z,46.20
2018-10-09T18:46:19.000Z,49.30
2018-10-09T18:48:47.172Z,51.67
2018-10-09T18:51:15.385Z,50.67
2018-10-09T18:53:44.514Z,49.23
2018-10-09T18:56:12.698Z,55.03
2018-10-09T18:58:40.920Z,53.60
2018-10-09T19:01:09.306Z,55.27
2018-10-09T19:03:37.953Z,37.33
2018-10-09T19:06:06.163Z,45.60
2018-10-09T19:08:34.519Z,42.13
2018-10-09T19:11:02.731Z,53.10
2018-10-09T19:13:30.912Z,49.93
2018-10-09T19:15:59.104Z,36.43
2018-10-09T19:18:27.340Z,46.30
2018-10-09T19:20:55.565Z,45.33
2018-10-09T19:23:23.901Z,49.47
2018-10-09T19:25:52.285Z,48.73
2018-10-09T19:28:20.720Z,46.90
2018-10-09T19:30:48.927Z,45.13
2018-10-09T19:33:17.130Z,50.10
2018-10-09T19:35:45.317Z,36.47
2018-10-09T19:38:13.640Z,41.77
2018-10-09T19:40:42.164Z,37.47
2018-10-09T19:43:10.346Z,55.37
2018-10-09T19:45:38.510Z,46.30
2018-10-09T19:48:06.751Z,35.33
2018-10-09T19:50:34.970Z,46.73
2018-10-09T19:53:03.113Z,47.13
2018-10-09T19:55:31.287Z,50.30
2018-10-09T19:57:59.466Z,54.10
2018-10-09T20:00:27.642Z,44.53
2018-10-09T20:02:55.827Z,44.63
2018-10-09T20:05:24.089Z,49.33
2018-10-09T20:07:52.376Z,47.10
2018-10-09T20:10:20.762Z,46.80
2018-10-09T20:12:49.006Z,36.60
2018-10-09T20:15:17.171Z,42.87
2018-10-09T20:17:45.363Z,46.20
2018-10-09T20:20:13.534Z,45.77
2018-10-09T20:22:41.831Z,45.77
2018-10-09T20:25:09.991Z,45.27
2018-10-09T20:27:38.169Z,42.10
2018-10-09T20:30:06.334Z,44.27
2018-10-09T20:32:34.519Z,47.40
2018-10-09T20:35:02.692Z,45.33
2018-10-09T20:37:30.874Z,35.17
2018-10-09T20:39:59.127Z,47.67
2018-10-09T20:42:27.352Z,45.57
2018-10-09T20:44:55.567Z,48.50
2018-10-09T20:47:29.201Z,46.33
2018-10-09T20:49:57.424Z,43.67
2018-10-09T20:52:25.882Z,44.90
2018-10-09T20:54:54.416Z,36.97
2018-10-09T20:57:22.804Z,47.77
2018-10-09T20:59:51.501Z,49.77
2018-10-09T21:02:19.757Z,43.93
2018-10-09T21:04:48.054Z,49.47
2018-10-09T21:07:16.288Z,42.57
2018-10-09T21:09:44.498Z,42.83
2018-10-09T21:12:12.695Z,42.53
2018-10-09T21:14:40.903Z,47.07
2018-10-09T21:17:09.078Z,40.33
2018-10-09T21:19:37.264Z,39.37
2018-10-09T21:22:05.434Z,40.63
2018-10-09T21:24:33.614Z,36.80
2018-10-09T21:27:01.790Z,36.90
2018-10-09T21:29:30.095Z,34.13
2018-10-09T21:31:58.946Z,45.10
2018-10-09T21:34:28.031Z,40.90
2018-10-09T21:36:58.615Z,40.17
2018-10-09T21:39:26.806Z,32.83
2018-10-09T21:41:55.055Z,41.50
2018-10-09T21:44:23.223Z,34.47
2018-10-09T21:46:51.391Z,38.50
2018-10-09T21:49:19.575Z,34.23
2018-10-09T21:51:47.751Z,42.87
2018-10-09T21:54:15.923Z,45.03
2018-10-09T21:56:44.099Z,34.23
2018-10-09T21:59:12.308Z,37.03
2018-10-09T22:01:40.474Z,36.23
2018-10-09T22:04:08.653Z,38.30
2018-10-09T22:06:36.824Z,46.13
2018-10-09T22:09:07.139Z,36.43
2018-10-09T22:11:35.307Z,39.13
2018-10-09T22:14:03.487Z,34.43
2018-10-09T22:16:31.651Z,36.57
2018-10-09T22:18:59.833Z,37.57
2018-10-09T22:21:28.000Z,34.27
2018-10-09T22:23:56.174Z,35.10
2018-10-09T22:26:24.373Z,36.13
2018-10-09T22:28:52.567Z,34.77
2018-10-09T22:31:20.738Z,40.73
2018-10-09T22:33:49.029Z,42.60
2018-10-09T22:36:17.211Z,37.60
2018-10-09T22:38:45.426Z,34.57
2018-10-09T22:41:13.639Z,34.33
2018-10-09T22:43:41.869Z,37.93
2018-10-09T22:46:10.105Z,34.80
2018-10-09T22:48:38.322Z,34.77
2018-10-09T22:51:06.612Z,36.20
2018-10-09T22:53:34.820Z,36.27
2018-10-09T22:56:03.056Z,47.47
2018-10-09T22:58:31.269Z,37.93
2018-10-09T23:00:59.494Z,38.90
2018-10-09T23:03:27.704Z,36.23
2018-10-09T23:05:55.925Z,39.83
2018-10-09T23:08:24.189Z,45.30
2018-10-09T23:10:52.372Z,39.27
2018-10-09T23:13:20.544Z,41.27
2018-10-09T23:15:48.723Z,43.60
2018-10-09T23:18:16.926Z,40.07
2018-10-09T23:20:45.071Z,39.67
2018-10-09T23:23:13.259Z,42.70
2018-10-09T23:25:41.659Z,39.53
2018-10-09T23:28:09.828Z,39.33
2018-10-09T23:30:38.004Z,42.93
2018-10-09T23:33:06.339Z,33.80
2018-10-09T23:35:34.511Z,43.70
2018-10-09T23:38:02.683Z,34.90
2018-10-09T23:40:30.858Z,39.40
2018-10-09T23:42:59.092Z,34.20
2018-10-09T23:45:27.247Z,35.97
2018-10-09T23:48:00.980Z,35.00
2018-10-09T23:50:29.208Z,40.03
2018-10-09T23:52:57.460Z,37.87
2018-10-09T23:55:25.968Z,35.70
2018-10-09T23:57:54.155Z,47.00
